createdAt,value
2016-11-12T00:00:02.291Z,1016.94
2016-11-12T00:01:02.269Z,1016.95
2016-11-12T00:02:02.248Z,1016.93
2016-11-12T00:03:02.220Z,1016.98
2016-11-12T00:04:02.199Z,1017
2016-11-12T00:05:02.173Z,1016.97
2016-11-12T00:06:02.151Z,1016.95
2016-11-12T00:07:02.127Z,1016.99
2016-11-12T00:08:02.105Z,1016.99
2016-11-12T00:09:02.081Z,1016.95
2016-11-12T00:10:02.056Z,1016.96
2016-11-12T00:11:02.032Z,1016.98
2016-11-12T00:12:02.010Z,1016.98
2016-11-12T00:13:01.985Z,1016.98
2016-11-12T00:14:01.963Z,1016.99
2016-11-12T00:15:01.939Z,1016.95
2016-11-12T00:16:01.916Z,1016.96
2016-11-12T00:17:01.892Z,1016.96
2016-11-12T00:18:01.869Z,1016.93
2016-11-12T00:19:01.846Z,1017.01
2016-11-12T00:20:01.821Z,1016.97
2016-11-12T00:21:01.798Z,1016.95
2016-11-12T00:22:01.777Z,1016.93
2016-11-12T00:23:01.752Z,1016.96
2016-11-12T00:24:01.729Z,1017
2016-11-12T00:25:01.704Z,1016.98
2016-11-12T00:26:01.682Z,1016.96
2016-11-12T00:27:01.657Z,1016.93
2016-11-12T00:28:01.633Z,1016.97
2016-11-12T00:29:01.610Z,1016.91
2016-11-12T00:30:01.588Z,1016.94
2016-11-12T00:31:01.562Z,1016.9
2016-11-12T00:32:01.541Z,1016.9
2016-11-12T00:33:01.516Z,1016.9
2016-11-12T00:34:01.495Z,1016.89
2016-11-12T00:35:01.468Z,1016.91
2016-11-12T00:36:01.445Z,1016.86
2016-11-12T00:37:01.425Z,1016.85
2016-11-12T00:38:01.397Z,1016.87
2016-11-12T00:39:01.376Z,1016.85
2016-11-12T00:40:01.354Z,1016.88
2016-11-12T00:41:01.379Z,1016.84
2016-11-12T00:42:01.303Z,1016.84
2016-11-12T00:43:01.331Z,1016.83
2016-11-12T00:44:01.257Z,1016.83
2016-11-12T00:45:01.234Z,1016.84
2016-11-12T00:46:01.211Z,1016.85
2016-11-12T00:47:01.186Z,1016.79
2016-11-12T00:48:01.165Z,1016.78
2016-11-12T00:49:01.139Z,1016.79
2016-11-12T00:50:01.116Z,1016.76
2016-11-12T00:51:01.093Z,1016.81
2016-11-12T00:52:01.069Z,1016.79
2016-11-12T00:53:01.045Z,1016.79
2016-11-12T00:54:01.023Z,1016.8
2016-11-12T00:55:01.001Z,1016.83
2016-11-12T00:56:00.976Z,1016.81
2016-11-12T00:57:00.951Z,1016.8
2016-11-12T00:58:00.929Z,1016.86
2016-11-12T00:59:00.905Z,1016.86
2016-11-12T01:00:00.880Z,1016.84
2016-11-12T01:01:00.857Z,1016.86
2016-11-12T01:02:00.840Z,1016.85
2016-11-12T01:03:00.809Z,1016.84
2016-11-12T01:04:00.785Z,1016.82
2016-11-12T01:05:00.761Z,1016.83
2016-11-12T01:06:00.738Z,1016.87
2016-11-12T01:07:00.718Z,1016.86
2016-11-12T01:08:00.693Z,1016.82
2016-11-12T01:09:00.670Z,1016.87
2016-11-12T01:10:00.646Z,1016.87
2016-11-12T01:11:00.624Z,1016.86
2016-11-12T01:12:00.598Z,1016.87
2016-11-12T01:13:00.574Z,1016.85
2016-11-12T01:14:00.549Z,1016.9
2016-11-12T01:15:00.529Z,1016.88
2016-11-12T01:16:00.503Z,1016.85
2016-11-12T01:17:00.481Z,1016.89
2016-11-12T01:18:00.455Z,1016.92
2016-11-12T01:19:00.431Z,1016.96
2016-11-12T01:20:00.409Z,1016.95
2016-11-12T01:21:00.383Z,1016.91
2016-11-12T01:22:00.359Z,1016.92
2016-11-12T01:23:00.336Z,1016.94
2016-11-12T01:24:00.313Z,1016.94
2016-11-12T01:25:00.289Z,1016.92
2016-11-12T01:26:00.267Z,1016.92
2016-11-12T01:27:00.240Z,1016.9
2016-11-12T01:28:00.218Z,1016.89
2016-11-12T01:29:00.191Z,1016.84
2016-11-12T01:30:00.170Z,1016.88
2016-11-12T01:31:00.146Z,1016.84
2016-11-12T01:32:00.123Z,1016.85
2016-11-12T01:33:00.098Z,1016.83
2016-11-12T01:34:00.076Z,1016.83
2016-11-12T01:35:00.058Z,1016.81
2016-11-12T01:36:00.027Z,1016.85
2016-11-12T01:37:00.002Z,1016.84
2016-11-12T01:37:59.979Z,1016.87
2016-11-12T01:38:59.956Z,1016.82
2016-11-12T01:39:59.931Z,1016.81
2016-11-12T01:40:59.909Z,1016.92
2016-11-12T01:41:59.885Z,1016.86
2016-11-12T01:42:59.911Z,1016.89
2016-11-12T01:43:59.839Z,1016.88
2016-11-12T01:44:59.815Z,1016.89
2016-11-12T01:45:59.790Z,1016.88
2016-11-12T01:46:59.767Z,1016.89
2016-11-12T01:47:59.745Z,1016.86
2016-11-12T01:48:59.720Z,1016.89
2016-11-12T01:49:59.695Z,1016.88
2016-11-12T01:50:59.671Z,1016.84
2016-11-12T01:51:59.651Z,1016.84
2016-11-12T01:52:59.624Z,1016.84
2016-11-12T01:53:59.601Z,1016.84
2016-11-12T01:54:59.576Z,1016.88
2016-11-12T01:55:59.555Z,1016.82
2016-11-12T01:56:59.531Z,1016.83
2016-11-12T01:57:59.508Z,1016.77
2016-11-12T01:58:59.482Z,1016.81
2016-11-12T01:59:59.458Z,1016.82
2016-11-12T02:00:59.435Z,1016.81
2016-11-12T02:01:59.412Z,1016.82
2016-11-12T02:02:59.387Z,1016.83
2016-11-12T02:03:59.365Z,1016.8
2016-11-12T02:04:59.340Z,1016.83
2016-11-12T02:05:59.321Z,1016.81
2016-11-12T02:06:59.294Z,1016.81
2016-11-12T02:07:59.270Z,1016.81
2016-11-12T02:08:59.247Z,1016.8
2016-11-12T02:09:59.221Z,1016.77
2016-11-12T02:10:59.201Z,1016.82
2016-11-12T02:11:59.176Z,1016.84
2016-11-12T02:12:59.150Z,1016.83
2016-11-12T02:13:59.127Z,1016.77
2016-11-12T02:14:59.104Z,1016.81
2016-11-12T02:15:59.080Z,1016.85
2016-11-12T02:16:59.056Z,1016.83
2016-11-12T02:17:59.033Z,1016.8
2016-11-12T02:18:59.010Z,1016.82
2016-11-12T02:19:58.987Z,1016.81
2016-11-12T02:20:58.962Z,1016.86
2016-11-12T02:21:58.954Z,1016.84
2016-11-12T02:22:58.916Z,1016.83
2016-11-12T02:23:58.892Z,1016.79
2016-11-12T02:24:58.868Z,1016.84
2016-11-12T02:25:58.844Z,1016.77
2016-11-12T02:26:58.823Z,1016.79
2016-11-12T02:27:58.798Z,1016.76
2016-11-12T02:28:58.774Z,1016.73
2016-11-12T02:29:58.750Z,1016.76
2016-11-12T02:30:58.729Z,1016.75
2016-11-12T02:31:58.705Z,1016.77
2016-11-12T02:32:58.681Z,1016.73
2016-11-12T02:33:58.656Z,1016.72
2016-11-12T02:34:58.632Z,1016.75
2016-11-12T02:35:58.610Z,1016.7
2016-11-12T02:36:58.597Z,1016.73
2016-11-12T02:37:58.562Z,1016.74
2016-11-12T02:38:58.538Z,1016.71
2016-11-12T02:39:58.513Z,1016.73
2016-11-12T02:40:58.493Z,1016.72
2016-11-12T02:41:58.468Z,1016.73
2016-11-12T02:42:58.444Z,1016.71
2016-11-12T02:43:58.422Z,1016.72
2016-11-12T02:44:58.397Z,1016.68
2016-11-12T02:45:58.374Z,1016.71
2016-11-12T02:46:58.350Z,1016.74
2016-11-12T02:47:58.327Z,1016.74
2016-11-12T02:48:58.303Z,1016.83
2016-11-12T02:49:58.330Z,1016.81
2016-11-12T02:50:58.255Z,1016.81
2016-11-12T02:51:58.234Z,1016.82
2016-11-12T02:52:58.210Z,1016.83
2016-11-12T02:53:58.185Z,1016.83
2016-11-12T02:54:58.163Z,1016.83
2016-11-12T02:55:58.138Z,1016.87
2016-11-12T02:56:58.115Z,1016.88
2016-11-12T02:57:58.090Z,1016.85
2016-11-12T02:58:58.070Z,1016.83
2016-11-12T02:59:58.044Z,1016.84
2016-11-12T03:00:58.019Z,1016.83
2016-11-12T03:01:57.995Z,1016.86
2016-11-12T03:02:57.975Z,1016.84
2016-11-12T03:03:57.948Z,1016.83
2016-11-12T03:04:57.925Z,1016.83
2016-11-12T03:05:57.901Z,1016.8
2016-11-12T03:06:57.877Z,1016.84
2016-11-12T03:07:57.856Z,1016.81
2016-11-12T03:08:57.832Z,1016.84
2016-11-12T03:09:57.810Z,1016.8
2016-11-12T03:10:57.785Z,1016.79
2016-11-12T03:11:57.804Z,1016.81
2016-11-12T03:12:57.737Z,1016.77
2016-11-12T03:13:57.714Z,1016.78
2016-11-12T03:14:57.688Z,1016.79
2016-11-12T03:15:57.664Z,1016.74
2016-11-12T03:16:57.641Z,1016.76
2016-11-12T03:17:57.628Z,1016.78
2016-11-12T03:18:57.595Z,1016.69
2016-11-12T03:19:57.569Z,1016.75
2016-11-12T03:20:57.547Z,1016.76
2016-11-12T03:21:57.524Z,1016.71
2016-11-12T03:22:57.498Z,1016.73
2016-11-12T03:23:57.475Z,1016.71
2016-11-12T03:24:57.454Z,1016.68
2016-11-12T03:25:57.429Z,1016.67
2016-11-12T03:26:57.405Z,1016.7
2016-11-12T03:27:57.382Z,1016.7
2016-11-12T03:28:57.560Z,1016.73
2016-11-12T03:29:57.333Z,1016.72
2016-11-12T03:30:57.361Z,1016.73
2016-11-12T03:31:57.286Z,1016.73
2016-11-12T03:32:57.264Z,1016.77
2016-11-12T03:33:57.239Z,1016.75
2016-11-12T03:34:57.216Z,1016.79
2016-11-12T03:35:57.194Z,1016.74
2016-11-12T03:36:57.169Z,1016.71
2016-11-12T03:37:57.145Z,1016.76
2016-11-12T03:38:57.120Z,1016.72
2016-11-12T03:39:57.104Z,1016.77
2016-11-12T03:40:57.074Z,1016.78
2016-11-12T03:41:57.049Z,1016.8
2016-11-12T03:42:57.025Z,1016.79
2016-11-12T03:43:57.003Z,1016.84
2016-11-12T03:44:56.978Z,1016.84
2016-11-12T03:45:56.955Z,1016.84
2016-11-12T03:46:56.931Z,1016.84
2016-11-12T03:47:56.913Z,1016.81
2016-11-12T03:48:56.886Z,1016.78
2016-11-12T03:49:56.863Z,1016.81
2016-11-12T03:50:56.837Z,1016.79
2016-11-12T03:51:56.814Z,1016.8
2016-11-12T03:52:56.840Z,1016.8
2016-11-12T03:53:56.766Z,1016.79
2016-11-12T03:54:56.742Z,1016.78
2016-11-12T03:55:56.719Z,1016.79
2016-11-12T03:56:56.697Z,1016.72
2016-11-12T03:57:56.673Z,1016.71
2016-11-12T03:58:56.647Z,1016.74
2016-11-12T03:59:56.623Z,1016.7
2016-11-12T04:00:56.602Z,1016.68
2016-11-12T04:01:56.577Z,1016.68
2016-11-12T04:02:56.553Z,1016.68
2016-11-12T04:03:56.528Z,1016.66
2016-11-12T04:04:56.508Z,1016.66
2016-11-12T04:05:56.481Z,1016.64
2016-11-12T04:06:56.460Z,1016.61
2016-11-12T04:07:56.437Z,1016.63
2016-11-12T04:08:56.411Z,1016.69
2016-11-12T04:09:56.387Z,1016.68
2016-11-12T04:10:56.363Z,1016.68
2016-11-12T04:11:56.341Z,1016.69
2016-11-12T04:12:56.316Z,1016.69
2016-11-12T04:13:56.292Z,1016.72
2016-11-12T04:14:56.268Z,1016.68
2016-11-12T04:15:56.244Z,1016.67
2016-11-12T04:16:56.259Z,1016.67
2016-11-12T04:17:56.197Z,1016.71
2016-11-12T04:18:56.173Z,1016.64
2016-11-12T04:19:56.150Z,1016.66
2016-11-12T04:20:56.129Z,1016.7
2016-11-12T04:21:56.104Z,1016.72
2016-11-12T04:22:56.081Z,1016.71
2016-11-12T04:23:56.058Z,1016.75
2016-11-12T04:24:56.031Z,1016.7
2016-11-12T04:25:56.010Z,1016.73
2016-11-12T04:26:55.985Z,1016.69
2016-11-12T04:27:55.960Z,1016.74
2016-11-12T04:28:55.936Z,1016.69
2016-11-12T04:29:55.913Z,1016.73
2016-11-12T04:30:55.889Z,1016.74
2016-11-12T04:31:55.865Z,1016.68
2016-11-12T04:32:55.840Z,1016.72
2016-11-12T04:33:55.821Z,1016.67
2016-11-12T04:34:55.793Z,1016.7
2016-11-12T04:35:55.769Z,1016.71
2016-11-12T04:36:55.745Z,1016.72
2016-11-12T04:37:55.723Z,1016.73
2016-11-12T04:38:55.698Z,1016.78
2016-11-12T04:39:55.674Z,1016.86
2016-11-12T04:40:55.650Z,1016.79
2016-11-12T04:41:55.627Z,1016.77
2016-11-12T04:42:55.604Z,1016.79
2016-11-12T04:43:55.579Z,1016.73
2016-11-12T04:44:55.555Z,1016.71
2016-11-12T04:45:55.531Z,1016.68
2016-11-12T04:46:55.507Z,1016.68
2016-11-12T04:47:55.484Z,1016.67
2016-11-12T04:48:55.461Z,1016.64
2016-11-12T04:49:55.437Z,1016.63
2016-11-12T04:50:55.412Z,1016.59
2016-11-12T04:51:55.390Z,1016.57
2016-11-12T04:52:55.366Z,1016.59
2016-11-12T04:53:55.341Z,1016.6
2016-11-12T04:54:55.318Z,1016.56
2016-11-12T04:55:55.293Z,1016.56
2016-11-12T04:56:55.270Z,1016.54
2016-11-12T04:57:55.246Z,1016.54
2016-11-12T04:58:55.223Z,1016.55
2016-11-12T04:59:55.199Z,1016.52
2016-11-12T05:00:55.173Z,1016.51
2016-11-12T05:01:55.149Z,1016.51
2016-11-12T05:02:55.126Z,1016.5
2016-11-12T05:03:55.104Z,1016.48
2016-11-12T05:04:55.078Z,1016.5
2016-11-12T05:05:55.053Z,1016.51
2016-11-12T05:06:55.033Z,1016.49
2016-11-12T05:07:55.013Z,1016.48
2016-11-12T05:08:54.981Z,1016.48
2016-11-12T05:09:54.958Z,1016.46
2016-11-12T05:10:54.936Z,1016.46
2016-11-12T05:11:54.917Z,1016.47
2016-11-12T05:12:54.887Z,1016.48
2016-11-12T05:13:54.863Z,1016.51
2016-11-12T05:14:54.838Z,1016.46
2016-11-12T05:15:54.813Z,1016.45
2016-11-12T05:16:54.789Z,1016.44
2016-11-12T05:17:54.766Z,1016.45
2016-11-12T05:18:54.741Z,1016.43
2016-11-12T05:19:54.718Z,1016.41
2016-11-12T05:20:54.694Z,1016.45
2016-11-12T05:21:54.670Z,1016.45
2016-11-12T05:22:54.647Z,1016.47
2016-11-12T05:23:54.621Z,1016.48
2016-11-12T05:24:54.599Z,1016.48
2016-11-12T05:25:54.573Z,1016.45
2016-11-12T05:26:54.550Z,1016.47
2016-11-12T05:27:54.526Z,1016.48
2016-11-12T05:28:54.703Z,1016.43
2016-11-12T05:29:54.478Z,1016.45
2016-11-12T05:30:54.452Z,1016.47
2016-11-12T05:31:54.430Z,1016.49
2016-11-12T05:32:54.407Z,1016.49
2016-11-12T05:33:54.383Z,1016.51
2016-11-12T05:34:54.357Z,1016.47
2016-11-12T05:35:54.335Z,1016.48
2016-11-12T05:36:54.310Z,1016.53
2016-11-12T05:37:54.283Z,1016.52
2016-11-12T05:38:54.266Z,1016.49
2016-11-12T05:39:54.237Z,1016.51
2016-11-12T05:40:54.215Z,1016.52
2016-11-12T05:41:54.193Z,1016.51
2016-11-12T05:42:54.165Z,1016.52
2016-11-12T05:43:54.144Z,1016.5
2016-11-12T05:44:54.117Z,1016.46
2016-11-12T05:45:54.094Z,1016.48
2016-11-12T05:46:54.072Z,1016.54
2016-11-12T05:47:54.047Z,1016.53
2016-11-12T05:48:54.021Z,1016.53
2016-11-12T05:49:53.999Z,1016.55
2016-11-12T05:50:53.971Z,1016.51
2016-11-12T05:51:53.948Z,1016.53
2016-11-12T05:52:53.924Z,1016.51
2016-11-12T05:53:53.901Z,1016.48
2016-11-12T05:54:53.886Z,1016.49
2016-11-12T05:55:53.852Z,1016.47
2016-11-12T05:56:53.830Z,1016.46
2016-11-12T05:57:53.805Z,1016.46
2016-11-12T05:58:53.781Z,1016.44
2016-11-12T05:59:53.756Z,1016.47
2016-11-12T06:00:53.731Z,1016.41
2016-11-12T06:01:53.709Z,1016.44
2016-11-12T06:02:53.683Z,1016.42
2016-11-12T06:03:53.663Z,1016.45
2016-11-12T06:04:53.635Z,1016.47
2016-11-12T06:05:53.611Z,1016.49
2016-11-12T06:06:53.588Z,1016.49
2016-11-12T06:07:53.562Z,1016.45
2016-11-12T06:08:53.539Z,1016.46
2016-11-12T06:09:53.516Z,1016.47
2016-11-12T06:10:53.491Z,1016.43
2016-11-12T06:11:53.469Z,1016.44
2016-11-12T06:12:53.442Z,1016.42
2016-11-12T06:13:53.417Z,1016.46
2016-11-12T06:14:53.395Z,1016.46
2016-11-12T06:15:53.372Z,1016.45
2016-11-12T06:16:53.346Z,1016.48
2016-11-12T06:17:53.322Z,1016.47
2016-11-12T06:18:53.298Z,1016.49
2016-11-12T06:19:53.273Z,1016.51
2016-11-12T06:20:53.249Z,1016.49
2016-11-12T06:21:53.224Z,1016.5
2016-11-12T06:22:53.202Z,1016.51
2016-11-12T06:23:53.177Z,1016.52
2016-11-12T06:24:53.158Z,1016.54
2016-11-12T06:25:53.132Z,1016.55
2016-11-12T06:26:53.104Z,1016.46
2016-11-12T06:27:53.087Z,1016.49
2016-11-12T06:28:53.058Z,1016.49
2016-11-12T06:29:53.032Z,1016.49
2016-11-12T06:30:53.008Z,1016.5
2016-11-12T06:31:52.985Z,1016.48
2016-11-12T06:32:52.966Z,1016.5
2016-11-12T06:33:52.938Z,1016.5
2016-11-12T06:34:52.912Z,1016.54
2016-11-12T06:35:52.890Z,1016.54
2016-11-12T06:36:52.866Z,1016.51
2016-11-12T06:37:52.840Z,1016.56
2016-11-12T06:38:52.817Z,1016.56
2016-11-12T06:39:52.792Z,1016.57
2016-11-12T06:40:52.769Z,1016.57
2016-11-12T06:41:52.745Z,1016.62
2016-11-12T06:42:52.721Z,1016.6
2016-11-12T06:43:52.697Z,1016.62
2016-11-12T06:44:52.673Z,1016.6
2016-11-12T06:45:52.647Z,1016.66
2016-11-12T06:46:52.623Z,1016.64
2016-11-12T06:47:52.600Z,1016.7
2016-11-12T06:48:52.576Z,1016.65
2016-11-12T06:49:52.554Z,1016.69
2016-11-12T06:50:52.528Z,1016.68
2016-11-12T06:51:52.503Z,1016.69
2016-11-12T06:52:52.484Z,1016.71
2016-11-12T06:53:52.457Z,1016.74
2016-11-12T06:54:52.433Z,1016.7
2016-11-12T06:55:52.411Z,1016.65
2016-11-12T06:56:52.385Z,1016.72
2016-11-12T06:57:52.363Z,1016.74
2016-11-12T06:58:52.341Z,1016.72
2016-11-12T06:59:52.314Z,1016.74
2016-11-12T07:00:52.296Z,1016.75
2016-11-12T07:01:52.264Z,1016.76
2016-11-12T07:02:52.241Z,1016.72
2016-11-12T07:03:52.220Z,1016.76
2016-11-12T07:04:52.195Z,1016.78
2016-11-12T07:05:52.170Z,1016.78
2016-11-12T07:06:52.148Z,1016.76
2016-11-12T07:07:52.125Z,1016.76
2016-11-12T07:08:52.099Z,1016.76
2016-11-12T07:09:52.077Z,1016.81
2016-11-12T07:10:52.052Z,1016.78
2016-11-12T07:11:52.029Z,1016.86
2016-11-12T07:12:52.016Z,1016.87
2016-11-12T07:13:51.981Z,1016.86
2016-11-12T07:14:51.958Z,1016.92
2016-11-12T07:15:51.935Z,1016.93
2016-11-12T07:16:51.912Z,1016.85
2016-11-12T07:17:51.887Z,1016.85
2016-11-12T07:18:51.866Z,1016.86
2016-11-12T07:19:51.840Z,1016.85
2016-11-12T07:20:51.816Z,1016.87
2016-11-12T07:21:51.793Z,1016.85
2016-11-12T07:22:51.770Z,1016.85
2016-11-12T07:23:51.746Z,1016.84
2016-11-12T07:24:51.722Z,1016.82
2016-11-12T07:25:51.701Z,1016.79
2016-11-12T07:26:51.678Z,1016.8
2016-11-12T07:27:51.653Z,1016.78
2016-11-12T07:28:51.833Z,1016.8
2016-11-12T07:29:51.607Z,1016.82
2016-11-12T07:30:51.584Z,1016.8
2016-11-12T07:31:51.560Z,1016.79
2016-11-12T07:32:51.537Z,1016.82
2016-11-12T07:33:51.513Z,1016.84
2016-11-12T07:34:51.490Z,1016.85
2016-11-12T07:35:51.467Z,1016.87
2016-11-12T07:36:51.444Z,1016.84
2016-11-12T07:37:51.420Z,1016.88
2016-11-12T07:38:51.398Z,1016.82
2016-11-12T07:39:51.375Z,1016.91
2016-11-12T07:40:51.354Z,1016.91
2016-11-12T07:41:51.329Z,1016.88
2016-11-12T07:42:51.306Z,1016.9
2016-11-12T07:43:51.281Z,1016.87
2016-11-12T07:44:51.260Z,1016.8
2016-11-12T07:45:51.233Z,1016.8
2016-11-12T07:46:51.212Z,1016.74
2016-11-12T07:47:51.190Z,1016.73
2016-11-12T07:48:51.164Z,1016.74
2016-11-12T07:49:51.141Z,1016.78
2016-11-12T07:50:51.119Z,1016.77
2016-11-12T07:51:51.096Z,1016.82
2016-11-12T07:52:51.072Z,1016.81
2016-11-12T07:53:51.048Z,1016.85
2016-11-12T07:54:51.026Z,1016.85
2016-11-12T07:55:51.002Z,1016.84
2016-11-12T07:56:50.977Z,1016.86
2016-11-12T07:57:50.955Z,1016.87
2016-11-12T07:58:50.931Z,1016.89
2016-11-12T07:59:50.909Z,1016.86
2016-11-12T08:00:50.886Z,1016.81
2016-11-12T08:01:50.861Z,1016.82
2016-11-12T08:02:50.838Z,1016.79
2016-11-12T08:03:50.814Z,1016.75
2016-11-12T08:04:50.792Z,1016.82
2016-11-12T08:05:50.769Z,1016.77
2016-11-12T08:06:50.748Z,1016.78
2016-11-12T08:07:50.724Z,1016.76
2016-11-12T08:08:50.700Z,1016.77
2016-11-12T08:09:50.676Z,1016.77
2016-11-12T08:10:50.653Z,1016.79
2016-11-12T08:11:50.631Z,1016.8
2016-11-12T08:12:50.607Z,1016.81
2016-11-12T08:13:50.589Z,1016.79
2016-11-12T08:14:50.562Z,1016.78
2016-11-12T08:15:50.541Z,1016.74
2016-11-12T08:16:50.517Z,1016.74
2016-11-12T08:17:50.494Z,1016.77
2016-11-12T08:18:50.471Z,1016.78
2016-11-12T08:19:50.447Z,1016.78
2016-11-12T08:20:50.428Z,1016.78
2016-11-12T08:21:50.402Z,1016.72
2016-11-12T08:22:50.382Z,1016.75
2016-11-12T08:23:50.357Z,1016.73
2016-11-12T08:24:50.335Z,1016.78
2016-11-12T08:25:50.310Z,1016.77
2016-11-12T08:26:50.288Z,1016.8
2016-11-12T08:27:50.266Z,1016.73
2016-11-12T08:28:50.244Z,1016.77
2016-11-12T08:29:50.223Z,1016.73
2016-11-12T08:30:50.198Z,1016.73
2016-11-12T08:31:50.175Z,1016.7
2016-11-12T08:32:50.152Z,1016.72
2016-11-12T08:33:50.132Z,1016.74
2016-11-12T08:34:50.108Z,1016.75
2016-11-12T08:35:50.117Z,1016.75
2016-11-12T08:36:50.062Z,1016.72
2016-11-12T08:37:50.041Z,1016.75
2016-11-12T08:38:50.018Z,1016.73
2016-11-12T08:39:49.997Z,1016.73
2016-11-12T08:40:49.974Z,1016.74
2016-11-12T08:41:49.951Z,1016.81
2016-11-12T08:42:49.929Z,1016.82
2016-11-12T08:43:49.906Z,1016.81
2016-11-12T08:44:49.885Z,1016.81
2016-11-12T08:45:49.862Z,1016.81
2016-11-12T08:46:49.842Z,1016.8
2016-11-12T08:47:49.817Z,1016.77
2016-11-12T08:48:49.796Z,1016.73
2016-11-12T08:49:49.774Z,1016.78
2016-11-12T08:50:49.754Z,1016.71
2016-11-12T08:51:49.731Z,1016.69
2016-11-12T08:52:49.708Z,1016.69
2016-11-12T08:53:49.686Z,1016.7
2016-11-12T08:54:49.666Z,1016.7
2016-11-12T08:55:49.642Z,1016.65
2016-11-12T08:56:49.620Z,1016.7
2016-11-12T08:57:49.600Z,1016.71
2016-11-12T08:58:49.578Z,1016.71
2016-11-12T08:59:49.555Z,1016.69
2016-11-12T09:00:49.533Z,1016.7
2016-11-12T09:01:49.513Z,1016.73
2016-11-12T09:02:49.489Z,1016.75
2016-11-12T09:03:49.468Z,1016.74
2016-11-12T09:04:49.446Z,1016.69
2016-11-12T09:05:49.423Z,1016.73
2016-11-12T09:06:49.402Z,1016.74
2016-11-12T09:07:49.382Z,1016.72
2016-11-12T09:08:49.360Z,1016.71
2016-11-12T09:09:49.338Z,1016.68
2016-11-12T09:10:49.321Z,1016.73
2016-11-12T09:11:49.296Z,1016.7
2016-11-12T09:12:49.273Z,1016.67
2016-11-12T09:13:49.251Z,1016.69
2016-11-12T09:14:49.231Z,1016.69
2016-11-12T09:15:49.208Z,1016.67
2016-11-12T09:16:49.189Z,1016.63
2016-11-12T09:17:49.169Z,1016.63
2016-11-12T09:18:49.144Z,1016.61
2016-11-12T09:19:49.123Z,1016.61
2016-11-12T09:20:49.101Z,1016.55
2016-11-12T09:21:49.081Z,1016.61
2016-11-12T09:22:49.235Z,1016.59
2016-11-12T09:23:49.038Z,1016.57
2016-11-12T09:24:49.020Z,1016.56
2016-11-12T09:25:49.000Z,1016.65
2016-11-12T09:26:48.979Z,1016.55
2016-11-12T09:27:48.958Z,1016.59
2016-11-12T09:28:49.139Z,1016.57
2016-11-12T09:29:48.919Z,1016.57
2016-11-12T09:30:48.898Z,1016.56
2016-11-12T09:31:48.877Z,1016.54
2016-11-12T09:32:48.858Z,1016.54
2016-11-12T09:33:48.838Z,1016.58
2016-11-12T09:34:48.865Z,1016.62
2016-11-12T09:35:48.800Z,1016.58
2016-11-12T09:36:48.779Z,1016.56
2016-11-12T09:37:48.760Z,1016.52
2016-11-12T09:38:48.740Z,1016.48
2016-11-12T09:39:48.720Z,1016.49
2016-11-12T09:40:48.701Z,1016.51
2016-11-12T09:41:48.682Z,1016.53
2016-11-12T09:42:48.663Z,1016.54
2016-11-12T09:43:48.644Z,1016.53
2016-11-12T09:44:48.625Z,1016.54
2016-11-12T09:45:48.608Z,1016.53
2016-11-12T09:46:48.591Z,1016.54
2016-11-12T09:47:48.570Z,1016.58
2016-11-12T09:48:48.552Z,1016.58
2016-11-12T09:49:48.533Z,1016.58
2016-11-12T09:50:48.516Z,1016.6
2016-11-12T09:51:48.498Z,1016.55
2016-11-12T09:52:48.483Z,1016.55
2016-11-12T09:53:48.463Z,1016.6
2016-11-12T09:54:48.446Z,1016.57
2016-11-12T09:55:48.429Z,1016.59
2016-11-12T09:56:48.410Z,1016.59
2016-11-12T09:57:48.394Z,1016.56
2016-11-12T09:58:48.377Z,1016.58
2016-11-12T09:59:48.359Z,1016.57
2016-11-12T10:00:48.341Z,1016.56
2016-11-12T10:01:48.326Z,1016.59
2016-11-12T10:02:48.310Z,1016.57
2016-11-12T10:03:48.292Z,1016.53
2016-11-12T10:04:48.275Z,1016.52
2016-11-12T10:05:48.258Z,1016.53
2016-11-12T10:06:48.241Z,1016.59
2016-11-12T10:07:48.224Z,1016.58
2016-11-12T10:08:48.208Z,1016.57
2016-11-12T10:09:48.194Z,1016.58
2016-11-12T10:10:48.176Z,1016.61
2016-11-12T10:11:48.161Z,1016.56
2016-11-12T10:12:48.146Z,1016.6
2016-11-12T10:13:48.131Z,1016.6
2016-11-12T10:14:48.115Z,1016.61
2016-11-12T10:15:48.099Z,1016.57
2016-11-12T10:16:48.086Z,1016.52
2016-11-12T10:17:48.071Z,1016.54
2016-11-12T10:18:48.057Z,1016.49
2016-11-12T10:19:48.040Z,1016.48
2016-11-12T10:20:48.026Z,1016.49
2016-11-12T10:21:48.012Z,1016.49
2016-11-12T10:22:47.997Z,1016.5
2016-11-12T10:23:47.982Z,1016.53
2016-11-12T10:24:47.970Z,1016.53
2016-11-12T10:25:47.954Z,1016.51
2016-11-12T10:26:47.975Z,1016.45
2016-11-12T10:27:47.923Z,1016.45
2016-11-12T10:28:47.909Z,1016.46
2016-11-12T10:29:47.894Z,1016.45
2016-11-12T10:30:47.880Z,1016.45
2016-11-12T10:31:47.866Z,1016.43
2016-11-12T10:32:47.856Z,1016.42
2016-11-12T10:33:47.837Z,1016.46
2016-11-12T10:34:47.820Z,1016.43
2016-11-12T10:35:47.808Z,1016.44
2016-11-12T10:36:47.794Z,1016.43
2016-11-12T10:37:47.779Z,1016.49
2016-11-12T10:38:47.763Z,1016.46
2016-11-12T10:39:47.748Z,1016.44
2016-11-12T10:40:47.733Z,1016.47
2016-11-12T10:41:47.719Z,1016.5
2016-11-12T10:42:47.706Z,1016.53
2016-11-12T10:43:47.691Z,1016.54
2016-11-12T10:44:47.676Z,1016.49
2016-11-12T10:45:47.663Z,1016.52
2016-11-12T10:46:47.649Z,1016.46
2016-11-12T10:47:47.634Z,1016.43
2016-11-12T10:48:47.622Z,1016.42
2016-11-12T10:49:47.606Z,1016.46
2016-11-12T10:50:47.592Z,1016.45
2016-11-12T10:51:47.579Z,1016.43
2016-11-12T10:52:47.566Z,1016.41
2016-11-12T10:53:47.551Z,1016.47
2016-11-12T10:54:47.537Z,1016.43
2016-11-12T10:55:47.523Z,1016.41
2016-11-12T10:56:47.510Z,1016.44
2016-11-12T10:57:47.497Z,1016.44
2016-11-12T10:58:47.483Z,1016.44
2016-11-12T10:59:47.468Z,1016.49
2016-11-12T11:00:47.455Z,1016.45
2016-11-12T11:01:47.442Z,1016.45
2016-11-12T11:02:47.427Z,1016.46
2016-11-12T11:03:47.416Z,1016.39
2016-11-12T11:04:47.402Z,1016.4
2016-11-12T11:05:47.389Z,1016.44
2016-11-12T11:06:47.377Z,1016.36
2016-11-12T11:07:47.366Z,1016.34
2016-11-12T11:08:47.352Z,1016.37
2016-11-12T11:09:47.340Z,1016.36
2016-11-12T11:10:47.328Z,1016.36
2016-11-12T11:11:47.316Z,1016.27
2016-11-12T11:12:47.305Z,1016.27
2016-11-12T11:13:47.293Z,1016.26
2016-11-12T11:14:47.282Z,1016.26
2016-11-12T11:15:47.273Z,1016.28
2016-11-12T11:16:47.264Z,1016.23
2016-11-12T11:17:47.249Z,1016.18
2016-11-12T11:18:47.239Z,1016.25
2016-11-12T11:19:47.229Z,1016.2
2016-11-12T11:20:47.218Z,1016.16
2016-11-12T11:21:47.207Z,1016.21
2016-11-12T11:22:47.197Z,1016.16
2016-11-12T11:23:47.184Z,1016.18
2016-11-12T11:24:47.172Z,1016.18
2016-11-12T11:25:47.162Z,1016.23
2016-11-12T11:26:47.181Z,1016.18
2016-11-12T11:27:47.138Z,1016.17
2016-11-12T11:28:47.327Z,1016.15
2016-11-12T11:29:47.112Z,1016.14
2016-11-12T11:30:47.100Z,1016.12
2016-11-12T11:31:47.087Z,1016.13
2016-11-12T11:32:47.074Z,1016.1
2016-11-12T11:33:47.072Z,1016.11
2016-11-12T11:34:47.054Z,1016.08
2016-11-12T11:35:47.038Z,1016.11
2016-11-12T11:36:47.023Z,1016.12
2016-11-12T11:37:47.009Z,1016.12
2016-11-12T11:38:46.997Z,1016.11
2016-11-12T11:39:46.980Z,1016.07
2016-11-12T11:40:46.964Z,1016.07
2016-11-12T11:41:46.950Z,1016.1
2016-11-12T11:42:46.935Z,1016.11
2016-11-12T11:43:46.921Z,1016.09
2016-11-12T11:44:46.910Z,1016.11
2016-11-12T11:45:46.895Z,1016.11
2016-11-12T11:46:46.878Z,1016.11
2016-11-12T11:47:46.865Z,1016.12
2016-11-12T11:48:46.851Z,1016.11
2016-11-12T11:49:46.838Z,1016.06
2016-11-12T11:50:46.824Z,1016.1
2016-11-12T11:51:46.812Z,1016.1
2016-11-12T11:52:46.799Z,1016.14
2016-11-12T11:53:46.785Z,1016.07
2016-11-12T11:54:46.775Z,1016.06
2016-11-12T11:55:46.764Z,1016.07
2016-11-12T11:56:46.751Z,1016.1
2016-11-12T11:57:46.739Z,1016.03
2016-11-12T11:58:46.728Z,1016.07
2016-11-12T11:59:46.717Z,1016.08
2016-11-12T12:00:46.708Z,1016.08
2016-11-12T12:01:46.697Z,1016.03
2016-11-12T12:02:46.685Z,1016.11
2016-11-12T12:03:46.676Z,1016.09
2016-11-12T12:04:46.667Z,1016.1
2016-11-12T12:05:46.655Z,1016.14
2016-11-12T12:06:46.646Z,1016.09